sensor_id;sensor_type;location;lat;lon;timestamp;P1;durP1;ratioP1;P2;durP2;ratioP2
19535;SDS011;9913;51.168;4.124;2023-04-24T00:00:40;31.03;;;20.27;;
19535;SDS011;9913;51.168;4.124;2023-04-24T00:03:08;37.27;;;21.33;;
19535;SDS011;9913;51.168;4.124;2023-04-24T00:05:37;29.60;;;19.27;;
19535;SDS011;9913;51.168;4.124;2023-04-24T00:08:08;33.03;;;21.50;;
19535;SDS011;9913;51.168;4.124;2023-04-24T00:10:36;30.80;;;20.80;;
19535;SDS011;9913;51.168;4.124;2023-04-24T00:13:06;35.80;;;22.30;;
19535;SDS011;9913;51.168;4.124;2023-04-24T00:15:34;30.53;;;20.13;;
19535;SDS011;9913;51.168;4.124;2023-04-24T00:18:03;30.70;;;20.63;;
19535;SDS011;9913;51.168;4.124;2023-04-24T00:20:31;33.67;;;21.07;;
19535;SDS011;9913;51.168;4.124;2023-04-24T00:23:02;29.33;;;19.63;;
19535;SDS011;9913;51.168;4.124;2023-04-24T00:25:30;28.23;;;19.83;;
19535;SDS011;9913;51.168;4.124;2023-04-24T00:27:58;31.97;;;19.97;;
19535;SDS011;9913;51.168;4.124;2023-04-24T00:30:28;36.37;;;22.30;;
19535;SDS011;9913;51.168;4.124;2023-04-24T00:32:57;30.13;;;19.13;;
19535;SDS011;9913;51.168;4.124;2023-04-24T00:35:25;32.80;;;20.50;;
19535;SDS011;9913;51.168;4.124;2023-04-24T00:37:53;32.87;;;21.90;;
19535;SDS011;9913;51.168;4.124;2023-04-24T00:40:22;30.53;;;20.20;;
19535;SDS011;9913;51.168;4.124;2023-04-24T00:42:50;30.73;;;20.80;;
19535;SDS011;9913;51.168;4.124;2023-04-24T00:45:19;33.10;;;21.53;;
19535;SDS011;9913;51.168;4.124;2023-04-24T00:47:49;35.97;;;22.17;;
19535;SDS011;9913;51.168;4.124;2023-04-24T00:50:20;35.90;;;22.93;;
19535;SDS011;9913;51.168;4.124;2023-04-24T00:52:50;39.47;;;24.83;;
19535;SDS011;9913;51.168;4.124;2023-04-24T00:55:19;33.37;;;21.87;;
19535;SDS011;9913;51.168;4.124;2023-04-24T00:57:47;36.20;;;24.00;;
19535;SDS011;9913;51.168;4.124;2023-04-24T01:00:17;34.73;;;23.13;;
19535;SDS011;9913;51.168;4.124;2023-04-24T01:02:46;35.47;;;22.73;;
19535;SDS011;9913;51.168;4.124;2023-04-24T01:05:18;37.47;;;22.90;;
19535;SDS011;9913;51.168;4.124;2023-04-24T01:07:47;34.03;;;22.50;;
19535;SDS011;9913;51.168;4.124;2023-04-24T01:10:15;34.00;;;21.13;;
19535;SDS011;9913;51.168;4.124;2023-04-24T01:12:47;31.63;;;19.37;;
19535;SDS011;9913;51.168;4.124;2023-04-24T01:15:15;27.20;;;18.70;;
19535;SDS011;9913;51.168;4.124;2023-04-24T01:17:43;28.80;;;18.70;;
19535;SDS011;9913;51.168;4.124;2023-04-24T01:20:14;30.33;;;19.43;;
19535;SDS011;9913;51.168;4.124;2023-04-24T01:22:45;27.20;;;18.27;;
19535;SDS011;9913;51.168;4.124;2023-04-24T01:25:14;21.80;;;16.30;;
19535;SDS011;9913;51.168;4.124;2023-04-24T01:27:42;22.00;;;15.23;;
19535;SDS011;9913;51.168;4.124;2023-04-24T01:30:11;25.27;;;16.37;;
19535;SDS011;9913;51.168;4.124;2023-04-24T01:32:41;23.30;;;14.10;;
19535;SDS011;9913;51.168;4.124;2023-04-24T01:35:11;21.13;;;15.13;;
19535;SDS011;9913;51.168;4.124;2023-04-24T01:37:39;19.73;;;14.20;;
19535;SDS011;9913;51.168;4.124;2023-04-24T01:40:09;19.57;;;14.00;;
19535;SDS011;9913;51.168;4.124;2023-04-24T01:42:38;21.33;;;14.00;;
19535;SDS011;9913;51.168;4.124;2023-04-24T01:45:10;20.07;;;13.13;;
19535;SDS011;9913;51.168;4.124;2023-04-24T01:47:39;18.53;;;13.43;;
19535;SDS011;9913;51.168;4.124;2023-04-24T01:50:08;15.40;;;12.17;;
19535;SDS011;9913;51.168;4.124;2023-04-24T01:52:38;18.73;;;13.13;;
19535;SDS011;9913;51.168;4.124;2023-04-24T01:55:10;22.20;;;13.97;;
19535;SDS011;9913;51.168;4.124;2023-04-24T01:57:38;21.67;;;14.67;;
19535;SDS011;9913;51.168;4.124;2023-04-24T02:00:08;20.70;;;14.90;;
19535;SDS011;9913;51.168;4.124;2023-04-24T02:02:40;20.33;;;15.70;;
19535;SDS011;9913;51.168;4.124;2023-04-24T02:05:13;23.00;;;15.37;;
19535;SDS011;9913;51.168;4.124;2023-04-24T02:07:41;25.60;;;17.27;;
19535;SDS011;9913;51.168;4.124;2023-04-24T02:10:11;28.43;;;18.30;;
19535;SDS011;9913;51.168;4.124;2023-04-24T02:12:42;27.20;;;18.00;;
19535;SDS011;9913;51.168;4.124;2023-04-24T02:15:11;29.63;;;20.67;;
19535;SDS011;9913;51.168;4.124;2023-04-24T02:17:39;31.60;;;20.67;;
19535;SDS011;9913;51.168;4.124;2023-04-24T02:20:07;31.17;;;20.10;;
19535;SDS011;9913;51.168;4.124;2023-04-24T02:22:37;29.77;;;19.07;;
19535;SDS011;9913;51.168;4.124;2023-04-24T02:25:06;36.83;;;23.40;;
19535;SDS011;9913;51.168;4.124;2023-04-24T02:27:36;29.03;;;18.70;;
19535;SDS011;9913;51.168;4.124;2023-04-24T02:30:06;34.87;;;20.27;;
19535;SDS011;9913;51.168;4.124;2023-04-24T02:32:35;30.07;;;19.67;;
19535;SDS011;9913;51.168;4.124;2023-04-24T02:35:04;30.37;;;20.37;;
19535;SDS011;9913;51.168;4.124;2023-04-24T02:37:33;30.47;;;20.47;;
19535;SDS011;9913;51.168;4.124;2023-04-24T02:40:01;33.37;;;21.97;;
19535;SDS011;9913;51.168;4.124;2023-04-24T02:42:30;30.73;;;19.97;;
19535;SDS011;9913;51.168;4.124;2023-04-24T02:45:00;34.73;;;22.30;;
19535;SDS011;9913;51.168;4.124;2023-04-24T02:47:29;35.60;;;22.77;;
19535;SDS011;9913;51.168;4.124;2023-04-24T02:49:59;36.27;;;21.87;;
19535;SDS011;9913;51.168;4.124;2023-04-24T02:52:27;35.80;;;21.50;;
19535;SDS011;9913;51.168;4.124;2023-04-24T02:54:56;33.00;;;21.03;;
19535;SDS011;9913;51.168;4.124;2023-04-24T02:57:24;38.10;;;23.47;;
19535;SDS011;9913;51.168;4.124;2023-04-24T02:59:52;34.30;;;22.07;;
19535;SDS011;9913;51.168;4.124;2023-04-24T03:02:22;40.23;;;25.30;;
19535;SDS011;9913;51.168;4.124;2023-04-24T03:04:51;40.77;;;26.20;;
19535;SDS011;9913;51.168;4.124;2023-04-24T03:07:19;42.30;;;26.10;;
19535;SDS011;9913;51.168;4.124;2023-04-24T03:09:48;41.30;;;24.67;;
19535;SDS011;9913;51.168;4.124;2023-04-24T03:12:16;39.97;;;23.93;;
19535;SDS011;9913;51.168;4.124;2023-04-24T03:14:45;34.87;;;18.90;;
19535;SDS011;9913;51.168;4.124;2023-04-24T03:17:13;28.93;;;16.00;;
19535;SDS011;9913;51.168;4.124;2023-04-24T03:19:44;26.87;;;15.47;;
19535;SDS011;9913;51.168;4.124;2023-04-24T03:22:12;22.43;;;12.27;;
19535;SDS011;9913;51.168;4.124;2023-04-24T03:24:41;19.80;;;11.73;;
19535;SDS011;9913;51.168;4.124;2023-04-24T03:27:10;12.23;;;8.50;;
19535;SDS011;9913;51.168;4.124;2023-04-24T03:29:54;13.77;;;7.93;;
19535;SDS011;9913;51.168;4.124;2023-04-24T03:32:31;14.83;;;7.13;;
19535;SDS011;9913;51.168;4.124;2023-04-24T03:35:02;17.07;;;8.20;;
19535;SDS011;9913;51.168;4.124;2023-04-24T03:37:31;11.50;;;7.50;;
19535;SDS011;9913;51.168;4.124;2023-04-24T03:40:16;12.80;;;7.40;;
19535;SDS011;9913;51.168;4.124;2023-04-24T03:42:44;11.47;;;7.20;;
19535;SDS011;9913;51.168;4.124;2023-04-24T03:45:13;15.20;;;8.13;;
19535;SDS011;9913;51.168;4.124;2023-04-24T03:47:46;15.27;;;8.40;;
19535;SDS011;9913;51.168;4.124;2023-04-24T03:50:16;13.23;;;9.50;;
19535;SDS011;9913;51.168;4.124;2023-04-24T03:52:44;20.03;;;10.13;;
19535;SDS011;9913;51.168;4.124;2023-04-24T03:55:23;14.90;;;8.77;;
19535;SDS011;9913;51.168;4.124;2023-04-24T03:57:52;17.07;;;9.73;;
19535;SDS011;9913;51.168;4.124;2023-04-24T04:00:21;15.90;;;9.97;;
19535;SDS011;9913;51.168;4.124;2023-04-24T04:03:08;16.23;;;11.67;;
19535;SDS011;9913;51.168;4.124;2023-04-24T04:05:38;21.70;;;11.97;;
19535;SDS011;9913;51.168;4.124;2023-04-24T04:08:06;19.90;;;12.53;;
19535;SDS011;9913;51.168;4.124;2023-04-24T04:10:35;21.73;;;12.00;;
19535;SDS011;9913;51.168;4.124;2023-04-24T04:13:04;27.03;;;13.70;;
19535;SDS011;9913;51.168;4.124;2023-04-24T04:15:34;19.27;;;13.33;;
19535;SDS011;9913;51.168;4.124;2023-04-24T04:18:03;26.43;;;15.33;;
19535;SDS011;9913;51.168;4.124;2023-04-24T04:20:32;27.20;;;16.60;;
19535;SDS011;9913;51.168;4.124;2023-04-24T04:23:02;27.23;;;17.10;;
19535;SDS011;9913;51.168;4.124;2023-04-24T04:25:43;30.37;;;17.03;;
19535;SDS011;9913;51.168;4.124;2023-04-24T04:28:15;30.53;;;17.43;;
19535;SDS011;9913;51.168;4.124;2023-04-24T04:30:47;28.47;;;17.70;;
19535;SDS011;9913;51.168;4.124;2023-04-24T04:33:16;29.87;;;17.00;;
19535;SDS011;9913;51.168;4.124;2023-04-24T04:35:44;32.40;;;18.60;;
19535;SDS011;9913;51.168;4.124;2023-04-24T04:38:18;32.10;;;18.70;;
19535;SDS011;9913;51.168;4.124;2023-04-24T04:40:56;29.13;;;17.33;;
19535;SDS011;9913;51.168;4.124;2023-04-24T04:43:28;28.27;;;16.80;;
19535;SDS011;9913;51.168;4.124;2023-04-24T04:45:58;26.20;;;16.83;;
19535;SDS011;9913;51.168;4.124;2023-04-24T04:48:48;32.23;;;17.67;;
19535;SDS011;9913;51.168;4.124;2023-04-24T04:51:16;33.40;;;18.73;;
19535;SDS011;9913;51.168;4.124;2023-04-24T04:53:47;32.70;;;17.23;;
19535;SDS011;9913;51.168;4.124;2023-04-24T04:56:15;29.43;;;17.60;;
19535;SDS011;9913;51.168;4.124;2023-04-24T04:58:45;29.33;;;15.90;;
19535;SDS011;9913;51.168;4.124;2023-04-24T05:01:15;25.83;;;15.27;;
19535;SDS011;9913;51.168;4.124;2023-04-24T05:03:46;26.17;;;15.83;;
19535;SDS011;9913;51.168;4.124;2023-04-24T05:06:16;28.87;;;14.97;;
19535;SDS011;9913;51.168;4.124;2023-04-24T05:08:47;27.57;;;15.80;;
19535;SDS011;9913;51.168;4.124;2023-04-24T05:11:29;25.50;;;14.80;;
19535;SDS011;9913;51.168;4.124;2023-04-24T05:14:00;24.20;;;12.77;;
19535;SDS011;9913;51.168;4.124;2023-04-24T05:16:34;24.57;;;13.83;;
19535;SDS011;9913;51.168;4.124;2023-04-24T05:19:05;23.30;;;13.47;;
19535;SDS011;9913;51.168;4.124;2023-04-24T05:21:37;29.30;;;16.10;;
19535;SDS011;9913;51.168;4.124;2023-04-24T05:24:09;26.27;;;14.60;;
19535;SDS011;9913;51.168;4.124;2023-04-24T05:27:09;25.60;;;14.43;;
19535;SDS011;9913;51.168;4.124;2023-04-24T05:29:39;29.93;;;15.20;;
19535;SDS011;9913;51.168;4.124;2023-04-24T05:32:08;27.13;;;15.87;;
19535;SDS011;9913;51.168;4.124;2023-04-24T05:34:37;28.37;;;15.40;;
19535;SDS011;9913;51.168;4.124;2023-04-24T05:37:05;30.97;;;16.77;;
19535;SDS011;9913;51.168;4.124;2023-04-24T05:39:37;28.77;;;17.53;;
19535;SDS011;9913;51.168;4.124;2023-04-24T05:42:08;25.77;;;14.23;;
19535;SDS011;9913;51.168;4.124;2023-04-24T05:44:36;31.27;;;16.00;;
19535;SDS011;9913;51.168;4.124;2023-04-24T05:47:04;34.50;;;17.80;;
19535;SDS011;9913;51.168;4.124;2023-04-24T05:49:33;33.83;;;18.53;;
19535;SDS011;9913;51.168;4.124;2023-04-24T05:52:01;31.10;;;18.83;;
19535;SDS011;9913;51.168;4.124;2023-04-24T05:54:32;35.63;;;19.40;;
19535;SDS011;9913;51.168;4.124;2023-04-24T05:57:03;32.97;;;19.93;;
19535;SDS011;9913;51.168;4.124;2023-04-24T05:59:56;30.97;;;17.77;;
19535;SDS011;9913;51.168;4.124;2023-04-24T06:02:25;36.03;;;19.83;;
19535;SDS011;9913;51.168;4.124;2023-04-24T06:04:54;38.20;;;20.33;;
19535;SDS011;9913;51.168;4.124;2023-04-24T06:07:24;35.60;;;20.67;;
19535;SDS011;9913;51.168;4.124;2023-04-24T06:09:53;34.40;;;19.10;;
19535;SDS011;9913;51.168;4.124;2023-04-24T06:12:24;38.10;;;19.97;;
19535;SDS011;9913;51.168;4.124;2023-04-24T06:14:58;34.47;;;17.97;;
19535;SDS011;9913;51.168;4.124;2023-04-24T06:17:47;32.70;;;19.53;;
19535;SDS011;9913;51.168;4.124;2023-04-24T06:20:17;34.03;;;19.50;;
19535;SDS011;9913;51.168;4.124;2023-04-24T06:22:45;34.57;;;19.77;;
19535;SDS011;9913;51.168;4.124;2023-04-24T06:25:14;36.13;;;19.57;;
19535;SDS011;9913;51.168;4.124;2023-04-24T06:27:44;32.60;;;17.17;;
19535;SDS011;9913;51.168;4.124;2023-04-24T06:30:12;33.13;;;18.43;;
19535;SDS011;9913;51.168;4.124;2023-04-24T06:32:40;33.10;;;15.80;;
19535;SDS011;9913;51.168;4.124;2023-04-24T06:35:09;35.33;;;16.00;;
19535;SDS011;9913;51.168;4.124;2023-04-24T06:37:39;26.20;;;15.03;;
19535;SDS011;9913;51.168;4.124;2023-04-24T06:40:07;27.27;;;14.77;;
19535;SDS011;9913;51.168;4.124;2023-04-24T06:42:36;29.60;;;12.40;;
19535;SDS011;9913;51.168;4.124;2023-04-24T06:45:09;21.07;;;10.67;;
19535;SDS011;9913;51.168;4.124;2023-04-24T06:47:38;22.97;;;9.47;;
19535;SDS011;9913;51.168;4.124;2023-04-24T06:50:06;17.87;;;8.27;;
19535;SDS011;9913;51.168;4.124;2023-04-24T06:52:35;15.67;;;8.73;;
19535;SDS011;9913;51.168;4.124;2023-04-24T06:55:04;16.90;;;8.00;;
19535;SDS011;9913;51.168;4.124;2023-04-24T06:57:33;17.23;;;7.33;;
19535;SDS011;9913;51.168;4.124;2023-04-24T07:00:01;14.33;;;7.27;;
19535;SDS011;9913;51.168;4.124;2023-04-24T07:02:33;20.07;;;7.40;;
19535;SDS011;9913;51.168;4.124;2023-04-24T07:05:01;14.73;;;7.50;;
19535;SDS011;9913;51.168;4.124;2023-04-24T07:07:29;16.77;;;7.27;;
19535;SDS011;9913;51.168;4.124;2023-04-24T07:09:58;15.57;;;7.23;;
19535;SDS011;9913;51.168;4.124;2023-04-24T07:12:26;16.47;;;7.83;;
19535;SDS011;9913;51.168;4.124;2023-04-24T07:14:54;15.23;;;7.50;;
19535;SDS011;9913;51.168;4.124;2023-04-24T07:17:22;14.67;;;7.13;;
19535;SDS011;9913;51.168;4.124;2023-04-24T07:19:52;14.47;;;6.73;;
19535;SDS011;9913;51.168;4.124;2023-04-24T07:22:20;14.23;;;6.23;;
19535;SDS011;9913;51.168;4.124;2023-04-24T07:24:49;16.07;;;6.17;;
19535;SDS011;9913;51.168;4.124;2023-04-24T07:27:17;15.33;;;6.70;;
19535;SDS011;9913;51.168;4.124;2023-04-24T07:29:46;14.20;;;6.77;;
19535;SDS011;9913;51.168;4.124;2023-04-24T07:32:14;13.23;;;5.70;;
19535;SDS011;9913;51.168;4.124;2023-04-24T07:34:42;16.70;;;7.07;;
19535;SDS011;9913;51.168;4.124;2023-04-24T07:37:12;13.00;;;5.73;;
19535;SDS011;9913;51.168;4.124;2023-04-24T07:39:40;15.73;;;6.03;;
19535;SDS011;9913;51.168;4.124;2023-04-24T07:42:09;18.43;;;5.90;;
19535;SDS011;9913;51.168;4.124;2023-04-24T07:44:37;18.80;;;6.13;;
19535;SDS011;9913;51.168;4.124;2023-04-24T07:47:05;19.90;;;6.50;;
19535;SDS011;9913;51.168;4.124;2023-04-24T07:49:33;16.83;;;7.37;;
19535;SDS011;9913;51.168;4.124;2023-04-24T07:52:02;15.03;;;7.67;;
19535;SDS011;9913;51.168;4.124;2023-04-24T07:54:31;15.83;;;7.37;;
19535;SDS011;9913;51.168;4.124;2023-04-24T07:57:00;14.80;;;7.63;;
19535;SDS011;9913;51.168;4.124;2023-04-24T07:59:28;16.00;;;7.67;;
19535;SDS011;9913;51.168;4.124;2023-04-24T08:01:57;18.10;;;6.80;;
19535;SDS011;9913;51.168;4.124;2023-04-24T08:04:25;14.43;;;6.50;;
19535;SDS011;9913;51.168;4.124;2023-04-24T08:06:53;22.87;;;7.90;;
19535;SDS011;9913;51.168;4.124;2023-04-24T08:09:22;14.83;;;6.10;;
19535;SDS011;9913;51.168;4.124;2023-04-24T08:11:54;15.67;;;6.53;;
19535;SDS011;9913;51.168;4.124;2023-04-24T08:14:23;15.17;;;6.00;;
19535;SDS011;9913;51.168;4.124;2023-04-24T08:16:52;15.03;;;5.43;;
19535;SDS011;9913;51.168;4.124;2023-04-24T08:19:21;11.63;;;5.73;;
19535;SDS011;9913;51.168;4.124;2023-04-24T08:21:50;11.00;;;4.80;;
19535;SDS011;9913;51.168;4.124;2023-04-24T08:24:18;10.23;;;4.50;;
19535;SDS011;9913;51.168;4.124;2023-04-24T08:26:46;12.03;;;4.37;;
19535;SDS011;9913;51.168;4.124;2023-04-24T08:29:18;15.30;;;4.67;;
19535;SDS011;9913;51.168;4.124;2023-04-24T08:31:46;14.87;;;5.43;;
19535;SDS011;9913;51.168;4.124;2023-04-24T08:34:14;16.90;;;6.53;;
19535;SDS011;9913;51.168;4.124;2023-04-24T08:36:43;14.40;;;6.00;;
19535;SDS011;9913;51.168;4.124;2023-04-24T08:39:13;14.40;;;6.20;;
19535;SDS011;9913;51.168;4.124;2023-04-24T08:41:42;17.97;;;7.10;;
19535;SDS011;9913;51.168;4.124;2023-04-24T08:44:12;20.90;;;6.60;;
19535;SDS011;9913;51.168;4.124;2023-04-24T08:46:44;20.47;;;7.10;;
19535;SDS011;9913;51.168;4.124;2023-04-24T08:49:14;15.10;;;7.10;;
19535;SDS011;9913;51.168;4.124;2023-04-24T08:51:46;13.50;;;6.30;;
19535;SDS011;9913;51.168;4.124;2023-04-24T08:54:16;13.80;;;5.87;;
19535;SDS011;9913;51.168;4.124;2023-04-24T08:56:45;12.57;;;5.70;;
19535;SDS011;9913;51.168;4.124;2023-04-24T08:59:15;13.00;;;6.27;;
19535;SDS011;9913;51.168;4.124;2023-04-24T09:01:45;14.30;;;6.07;;
19535;SDS011;9913;51.168;4.124;2023-04-24T09:04:16;15.27;;;5.40;;
19535;SDS011;9913;51.168;4.124;2023-04-24T09:06:47;15.30;;;5.57;;
19535;SDS011;9913;51.168;4.124;2023-04-24T09:09:16;12.60;;;4.60;;
19535;SDS011;9913;51.168;4.124;2023-04-24T09:11:45;9.07;;;5.17;;
19535;SDS011;9913;51.168;4.124;2023-04-24T09:14:14;11.47;;;5.20;;
19535;SDS011;9913;51.168;4.124;2023-04-24T09:16:45;8.60;;;4.60;;
19535;SDS011;9913;51.168;4.124;2023-04-24T09:19:14;13.93;;;4.47;;
19535;SDS011;9913;51.168;4.124;2023-04-24T09:21:45;11.57;;;4.43;;
19535;SDS011;9913;51.168;4.124;2023-04-24T09:24:14;9.33;;;3.80;;
19535;SDS011;9913;51.168;4.124;2023-04-24T09:26:44;11.00;;;3.50;;
19535;SDS011;9913;51.168;4.124;2023-04-24T09:29:16;8.13;;;3.57;;
19535;SDS011;9913;51.168;4.124;2023-04-24T09:31:46;8.53;;;4.00;;
19535;SDS011;9913;51.168;4.124;2023-04-24T09:34:18;6.47;;;3.57;;
19535;SDS011;9913;51.168;4.124;2023-04-24T09:36:50;7.53;;;3.50;;
19535;SDS011;9913;51.168;4.124;2023-04-24T09:39:18;8.07;;;3.63;;
19535;SDS011;9913;51.168;4.124;2023-04-24T09:41:47;10.03;;;4.23;;
19535;SDS011;9913;51.168;4.124;2023-04-24T09:44:17;11.93;;;4.43;;
19535;SDS011;9913;51.168;4.124;2023-04-24T09:46:50;7.10;;;3.00;;
19535;SDS011;9913;51.168;4.124;2023-04-24T09:49:21;6.90;;;3.30;;
19535;SDS011;9913;51.168;4.124;2023-04-24T09:51:51;5.43;;;3.40;;
19535;SDS011;9913;51.168;4.124;2023-04-24T09:54:20;5.80;;;2.67;;
19535;SDS011;9913;51.168;4.124;2023-04-24T09:56:50;7.63;;;2.90;;
19535;SDS011;9913;51.168;4.124;2023-04-24T09:59:19;5.67;;;2.87;;
19535;SDS011;9913;51.168;4.124;2023-04-24T10:01:47;9.53;;;3.27;;
19535;SDS011;9913;51.168;4.124;2023-04-24T10:04:19;7.67;;;3.27;;
19535;SDS011;9913;51.168;4.124;2023-04-24T10:06:49;6.33;;;2.70;;
19535;SDS011;9913;51.168;4.124;2023-04-24T10:09:20;6.43;;;2.63;;
19535;SDS011;9913;51.168;4.124;2023-04-24T10:11:50;8.87;;;3.67;;
19535;SDS011;9913;51.168;4.124;2023-04-24T10:14:21;6.27;;;3.37;;
19535;SDS011;9913;51.168;4.124;2023-04-24T10:16:52;6.83;;;3.33;;
19535;SDS011;9913;51.168;4.124;2023-04-24T10:19:23;6.63;;;3.40;;
19535;SDS011;9913;51.168;4.124;2023-04-24T10:21:53;8.67;;;3.83;;
19535;SDS011;9913;51.168;4.124;2023-04-24T10:24:23;10.30;;;3.67;;
19535;SDS011;9913;51.168;4.124;2023-04-24T10:26:52;9.73;;;3.53;;
19535;SDS011;9913;51.168;4.124;2023-04-24T10:29:20;7.20;;;3.63;;
19535;SDS011;9913;51.168;4.124;2023-04-24T10:31:49;8.40;;;3.40;;
19535;SDS011;9913;51.168;4.124;2023-04-24T10:34:17;7.73;;;3.67;;
19535;SDS011;9913;51.168;4.124;2023-04-24T10:36:50;7.50;;;3.70;;
19535;SDS011;9913;51.168;4.124;2023-04-24T10:39:23;8.77;;;3.60;;
19535;SDS011;9913;51.168;4.124;2023-04-24T10:41:53;7.07;;;3.33;;
19535;SDS011;9913;51.168;4.124;2023-04-24T10:44:24;8.23;;;3.43;;
19535;SDS011;9913;51.168;4.124;2023-04-24T10:46:54;7.00;;;4.07;;
19535;SDS011;9913;51.168;4.124;2023-04-24T10:49:27;9.07;;;3.30;;
19535;SDS011;9913;51.168;4.124;2023-04-24T10:52:01;7.80;;;3.47;;
19535;SDS011;9913;51.168;4.124;2023-04-24T10:54:34;5.60;;;2.80;;
19535;SDS011;9913;51.168;4.124;2023-04-24T11:00:15;7.90;;;3.20;;
19535;SDS011;9913;51.168;4.124;2023-04-24T11:02:46;5.30;;;2.20;;
19535;SDS011;9913;51.168;4.124;2023-04-24T11:05:20;5.70;;;2.33;;
19535;SDS011;9913;51.168;4.124;2023-04-24T11:10:40;5.33;;;2.77;;
19535;SDS011;9913;51.168;4.124;2023-04-24T11:13:14;4.20;;;2.70;;
19535;SDS011;9913;51.168;4.124;2023-04-24T11:15:43;4.50;;;2.33;;
19535;SDS011;9913;51.168;4.124;2023-04-24T11:18:13;4.57;;;2.23;;
19535;SDS011;9913;51.168;4.124;2023-04-24T11:20:42;5.80;;;2.20;;
19535;SDS011;9913;51.168;4.124;2023-04-24T11:23:13;10.97;;;2.50;;
19535;SDS011;9913;51.168;4.124;2023-04-24T11:25:41;5.43;;;1.83;;
19535;SDS011;9913;51.168;4.124;2023-04-24T11:28:10;5.70;;;2.10;;
19535;SDS011;9913;51.168;4.124;2023-04-24T11:30:43;5.70;;;2.30;;
19535;SDS011;9913;51.168;4.124;2023-04-24T11:33:11;4.10;;;2.20;;
19535;SDS011;9913;51.168;4.124;2023-04-24T11:35:47;4.67;;;2.10;;
19535;SDS011;9913;51.168;4.124;2023-04-24T11:38:17;4.13;;;1.80;;
19535;SDS011;9913;51.168;4.124;2023-04-24T11:40:51;5.23;;;1.97;;
19535;SDS011;9913;51.168;4.124;2023-04-24T11:43:20;5.97;;;2.50;;
19535;SDS011;9913;51.168;4.124;2023-04-24T11:45:49;6.37;;;2.37;;
19535;SDS011;9913;51.168;4.124;2023-04-24T11:48:18;5.40;;;2.03;;
19535;SDS011;9913;51.168;4.124;2023-04-24T11:50:49;5.03;;;1.90;;
19535;SDS011;9913;51.168;4.124;2023-04-24T11:53:20;3.43;;;1.80;;
19535;SDS011;9913;51.168;4.124;2023-04-24T11:55:49;3.57;;;2.00;;
19535;SDS011;9913;51.168;4.124;2023-04-24T11:58:20;3.50;;;2.10;;
19535;SDS011;9913;51.168;4.124;2023-04-24T12:00:55;4.70;;;1.90;;
19535;SDS011;9913;51.168;4.124;2023-04-24T12:03:24;3.60;;;1.70;;
19535;SDS011;9913;51.168;4.124;2023-04-24T12:06:04;4.33;;;1.83;;
19535;SDS011;9913;51.168;4.124;2023-04-24T12:08:36;4.23;;;1.80;;
19535;SDS011;9913;51.168;4.124;2023-04-24T12:11:05;3.80;;;1.90;;
19535;SDS011;9913;51.168;4.124;2023-04-24T12:13:34;4.10;;;2.10;;
19535;SDS011;9913;51.168;4.124;2023-04-24T12:16:03;5.70;;;2.07;;
19535;SDS011;9913;51.168;4.124;2023-04-24T12:18:44;4.00;;;1.80;;
19535;SDS011;9913;51.168;4.124;2023-04-24T12:21:19;3.17;;;1.90;;
19535;SDS011;9913;51.168;4.124;2023-04-24T12:23:50;4.63;;;1.80;;
19535;SDS011;9913;51.168;4.124;2023-04-24T12:26:21;4.70;;;2.40;;
19535;SDS011;9913;51.168;4.124;2023-04-24T12:28:51;4.27;;;2.40;;
19535;SDS011;9913;51.168;4.124;2023-04-24T12:31:20;5.37;;;2.60;;
19535;SDS011;9913;51.168;4.124;2023-04-24T12:33:48;5.43;;;2.47;;
19535;SDS011;9913;51.168;4.124;2023-04-24T12:36:17;4.67;;;2.23;;
19535;SDS011;9913;51.168;4.124;2023-04-24T12:38:45;7.00;;;2.60;;
19535;SDS011;9913;51.168;4.124;2023-04-24T12:41:15;5.37;;;2.70;;
19535;SDS011;9913;51.168;4.124;2023-04-24T12:43:52;5.67;;;2.93;;
19535;SDS011;9913;51.168;4.124;2023-04-24T12:46:22;5.60;;;2.50;;
19535;SDS011;9913;51.168;4.124;2023-04-24T12:48:50;3.27;;;2.20;;
19535;SDS011;9913;51.168;4.124;2023-04-24T12:51:18;5.07;;;2.40;;
19535;SDS011;9913;51.168;4.124;2023-04-24T12:53:47;6.90;;;1.93;;
19535;SDS011;9913;51.168;4.124;2023-04-24T12:56:16;2.97;;;1.50;;
19535;SDS011;9913;51.168;4.124;2023-04-24T12:58:45;2.93;;;1.90;;
19535;SDS011;9913;51.168;4.124;2023-04-24T13:01:13;2.80;;;1.50;;
19535;SDS011;9913;51.168;4.124;2023-04-24T13:03:41;4.20;;;1.73;;
19535;SDS011;9913;51.168;4.124;2023-04-24T13:06:10;3.43;;;1.60;;
19535;SDS011;9913;51.168;4.124;2023-04-24T13:08:38;4.00;;;1.90;;
19535;SDS011;9913;51.168;4.124;2023-04-24T13:11:07;4.33;;;1.50;;
19535;SDS011;9913;51.168;4.124;2023-04-24T13:13:36;3.17;;;1.50;;
19535;SDS011;9913;51.168;4.124;2023-04-24T13:16:06;3.90;;;1.47;;
19535;SDS011;9913;51.168;4.124;2023-04-24T13:18:34;3.50;;;1.73;;
19535;SDS011;9913;51.168;4.124;2023-04-24T13:21:02;3.40;;;1.80;;
19535;SDS011;9913;51.168;4.124;2023-04-24T13:23:31;3.17;;;1.40;;
19535;SDS011;9913;51.168;4.124;2023-04-24T13:25:59;2.90;;;1.50;;
19535;SDS011;9913;51.168;4.124;2023-04-24T13:28:27;2.93;;;1.60;;
19535;SDS011;9913;51.168;4.124;2023-04-24T13:30:57;4.10;;;1.70;;
19535;SDS011;9913;51.168;4.124;2023-04-24T13:33:26;2.70;;;1.60;;
19535;SDS011;9913;51.168;4.124;2023-04-24T13:35:54;2.17;;;1.50;;
19535;SDS011;9913;51.168;4.124;2023-04-24T13:38:22;3.27;;;1.60;;
19535;SDS011;9913;51.168;4.124;2023-04-24T13:40:51;3.17;;;1.60;;
19535;SDS011;9913;51.168;4.124;2023-04-24T13:43:19;2.10;;;1.50;;
19535;SDS011;9913;51.168;4.124;2023-04-24T13:45:47;3.13;;;1.50;;
19535;SDS011;9913;51.168;4.124;2023-04-24T13:48:17;3.73;;;1.60;;
19535;SDS011;9913;51.168;4.124;2023-04-24T13:50:45;2.43;;;1.60;;
19535;SDS011;9913;51.168;4.124;2023-04-24T13:53:15;3.40;;;1.50;;
19535;SDS011;9913;51.168;4.124;2023-04-24T13:55:43;4.73;;;1.70;;
19535;SDS011;9913;51.168;4.124;2023-04-24T13:58:11;2.63;;;1.73;;
19535;SDS011;9913;51.168;4.124;2023-04-24T14:00:40;2.03;;;1.50;;
19535;SDS011;9913;51.168;4.124;2023-04-24T14:03:08;3.00;;;1.30;;
19535;SDS011;9913;51.168;4.124;2023-04-24T14:05:39;3.00;;;1.37;;
19535;SDS011;9913;51.168;4.124;2023-04-24T14:08:08;3.33;;;1.53;;
19535;SDS011;9913;51.168;4.124;2023-04-24T14:10:36;2.37;;;1.40;;
19535;SDS011;9913;51.168;4.124;2023-04-24T14:13:05;5.00;;;1.80;;
19535;SDS011;9913;51.168;4.124;2023-04-24T14:15:33;3.67;;;1.43;;
19535;SDS011;9913;51.168;4.124;2023-04-24T14:18:03;3.00;;;1.63;;
19535;SDS011;9913;51.168;4.124;2023-04-24T14:20:32;2.67;;;1.60;;
19535;SDS011;9913;51.168;4.124;2023-04-24T14:23:01;3.93;;;1.57;;
19535;SDS011;9913;51.168;4.124;2023-04-24T14:25:30;5.43;;;1.83;;
19535;SDS011;9913;51.168;4.124;2023-04-24T14:27:58;2.97;;;1.30;;
19535;SDS011;9913;51.168;4.124;2023-04-24T14:30:27;3.70;;;1.35;;
19535;SDS011;9913;51.168;4.124;2023-04-24T14:32:55;3.83;;;1.40;;
19535;SDS011;9913;51.168;4.124;2023-04-24T14:35:23;4.40;;;1.55;;
19535;SDS011;9913;51.168;4.124;2023-04-24T14:37:53;4.90;;;1.55;;
19535;SDS011;9913;51.168;4.124;2023-04-24T14:40:23;3.42;;;1.50;;
19535;SDS011;9913;51.168;4.124;2023-04-24T14:42:54;5.43;;;1.85;;
19535;SDS011;9913;51.168;4.124;2023-04-24T14:45:23;3.33;;;1.98;;
19535;SDS011;9913;51.168;4.124;2023-04-24T14:47:52;4.57;;;2.00;;
19535;SDS011;9913;51.168;4.124;2023-04-24T14:50:20;4.25;;;1.98;;
19535;SDS011;9913;51.168;4.124;2023-04-24T14:52:50;5.32;;;2.00;;
19535;SDS011;9913;51.168;4.124;2023-04-24T14:55:18;3.55;;;1.85;;
19535;SDS011;9913;51.168;4.124;2023-04-24T14:57:48;4.13;;;2.28;;
19535;SDS011;9913;51.168;4.124;2023-04-24T15:00:17;4.00;;;2.03;;
19535;SDS011;9913;51.168;4.124;2023-04-24T15:02:46;3.38;;;1.90;;
19535;SDS011;9913;51.168;4.124;2023-04-24T15:05:15;3.13;;;1.60;;
19535;SDS011;9913;51.168;4.124;2023-04-24T15:07:44;5.13;;;1.52;;
19535;SDS011;9913;51.168;4.124;2023-04-24T15:10:13;2.70;;;1.48;;